createdAt,value
2018-06-17T00:01:00.117Z,71.60
2018-06-17T00:03:28.975Z,71.90
2018-06-17T00:05:57.827Z,71.90
2018-06-17T00:08:26.639Z,72.00
2018-06-17T00:10:55.453Z,71.80
2018-06-17T00:15:52.840Z,72.50
2018-06-17T00:18:21.634Z,72.40
2018-06-17T00:20:50.439Z,72.40
2018-06-17T00:23:19.235Z,72.70
2018-06-17T00:25:48.061Z,73.20
2018-06-17T00:28:16.860Z,73.10
2018-06-17T00:30:45.651Z,73.20
2018-06-17T00:35:43.058Z,73.90
2018-06-17T00:38:12.263Z,74.00
2018-06-17T00:40:41.067Z,74.10
2018-06-17T00:43:09.864Z,74.40
2018-06-17T00:45:38.655Z,74.90
2018-06-17T00:48:07.460Z,74.80
2018-06-17T00:50:36.263Z,75.50
2018-06-17T00:53:05.080Z,74.70
2018-06-17T00:55:33.879Z,75.00
2018-06-17T00:58:02.680Z,75.60
2018-06-17T01:00:31.537Z,76.20
2018-06-17T01:03:00.339Z,77.10
2018-06-17T01:05:29.130Z,77.30
2018-06-17T01:07:58.005Z,77.20
2018-06-17T01:10:27.591Z,76.90
2018-06-17T01:12:56.415Z,76.70
2018-06-17T01:15:25.315Z,76.70
2018-06-17T01:17:54.132Z,76.40
2018-06-17T01:20:22.943Z,76.30
2018-06-17T01:22:51.740Z,75.80
2018-06-17T01:25:20.562Z,75.90
2018-06-17T01:27:49.385Z,76.30
2018-06-17T01:30:18.202Z,74.90
2018-06-17T01:32:47.010Z,74.90
2018-06-17T01:35:16.347Z,73.30
2018-06-17T01:37:45.119Z,73.60
2018-06-17T01:40:13.958Z,75.80
2018-06-17T01:42:42.772Z,77.70
2018-06-17T01:45:11.595Z,79.40
2018-06-17T01:47:40.410Z,80.70
2018-06-17T01:50:09.199Z,81.50
2018-06-17T01:52:38.007Z,82.20
2018-06-17T01:55:06.823Z,83.00
2018-06-17T01:57:35.627Z,83.30
2018-06-17T02:00:04.987Z,83.80
2018-06-17T02:02:33.812Z,84.20
2018-06-17T02:05:08.136Z,84.70
2018-06-17T02:07:42.392Z,85.10
2018-06-17T02:10:16.691Z,85.20
2018-06-17T02:15:14.003Z,86.00
2018-06-17T02:17:42.823Z,86.50
2018-06-17T02:20:12.225Z,86.80
2018-06-17T02:22:41.023Z,87.00
2018-06-17T02:25:09.860Z,87.50
2018-06-17T02:27:38.663Z,87.40
2018-06-17T02:30:07.552Z,87.70
2018-06-17T02:32:36.362Z,87.80
2018-06-17T02:35:05.193Z,87.80
2018-06-17T02:37:33.998Z,88.00
2018-06-17T02:40:02.795Z,87.80
2018-06-17T02:42:31.597Z,87.60
2018-06-17T02:45:06.109Z,87.80
2018-06-17T02:47:40.501Z,87.80
2018-06-17T02:52:49.103Z,88.80
2018-06-17T02:55:17.911Z,89.20
2018-06-17T02:57:46.728Z,90.50
2018-06-17T03:00:15.532Z,90.60
2018-06-17T03:02:44.353Z,90.90
2018-06-17T03:05:13.160Z,91.10
2018-06-17T03:10:10.576Z,92.00
2018-06-17T03:12:39.388Z,92.30
2018-06-17T03:15:08.215Z,92.30
2018-06-17T03:20:05.591Z,92.30
2018-06-17T03:22:34.412Z,92.30
2018-06-17T03:25:08.529Z,92.00
2018-06-17T03:27:42.799Z,91.90
2018-06-17T03:30:17.083Z,91.80
2018-06-17T03:32:51.175Z,91.60
2018-06-17T03:35:25.625Z,91.60
2018-06-17T03:37:54.452Z,91.40
2018-06-17T03:40:23.296Z,91.50
2018-06-17T03:42:52.124Z,91.70
2018-06-17T03:45:20.951Z,91.80
2018-06-17T03:47:49.808Z,91.80
2018-06-17T03:50:18.619Z,91.50
2018-06-17T03:52:47.444Z,91.30
2018-06-17T03:55:16.264Z,91.20
2018-06-17T03:57:45.088Z,91.10
2018-06-17T04:00:13.904Z,90.80
2018-06-17T04:02:42.739Z,90.50
2018-06-17T04:05:17.024Z,90.30
2018-06-17T04:07:45.867Z,90.20
2018-06-17T04:10:14.722Z,90.20
2018-06-17T04:12:43.499Z,89.30
2018-06-17T04:15:12.319Z,88.70
2018-06-17T04:17:41.111Z,88.40
2018-06-17T04:20:09.928Z,87.40
2018-06-17T04:22:38.728Z,85.90
2018-06-17T04:25:07.540Z,84.30
2018-06-17T04:27:36.339Z,83.40
2018-06-17T04:30:05.154Z,83.80
2018-06-17T04:32:33.961Z,83.90
2018-06-17T04:35:02.810Z,83.90
2018-06-17T04:37:31.823Z,83.30
2018-06-17T04:40:00.632Z,82.50
2018-06-17T04:42:29.435Z,81.10
2018-06-17T04:44:58.247Z,79.40
2018-06-17T04:47:27.048Z,77.40
2018-06-17T04:49:55.847Z,76.50
2018-06-17T04:52:24.663Z,74.40
2018-06-17T04:54:53.463Z,73.10
2018-06-17T04:57:22.267Z,71.60
2018-06-17T04:59:51.063Z,70.00
2018-06-17T05:02:19.860Z,69.60
2018-06-17T05:07:17.172Z,66.70
2018-06-17T05:09:45.983Z,65.20
2018-06-17T05:12:14.775Z,63.40
2018-06-17T05:14:43.616Z,62.50
2018-06-17T05:17:13.276Z,61.50
2018-06-17T05:19:42.262Z,60.70
2018-06-17T05:22:11.068Z,58.30
2018-06-17T05:24:39.880Z,56.20
2018-06-17T05:27:08.679Z,54.30
2018-06-17T05:29:37.489Z,52.70
2018-06-17T05:32:06.611Z,49.80
2018-06-17T05:34:35.451Z,46.90
2018-06-17T05:37:04.244Z,45.00
2018-06-17T05:39:33.048Z,43.60
2018-06-17T05:42:02.046Z,43.10
2018-06-17T05:44:30.859Z,42.40
2018-06-17T05:46:59.659Z,41.90
2018-06-17T05:49:28.479Z,45.00
2018-06-17T05:51:57.287Z,47.40
2018-06-17T05:54:26.084Z,49.10
2018-06-17T05:56:55.004Z,49.40
2018-06-17T05:59:23.799Z,48.30
2018-06-17T06:01:52.908Z,50.30
2018-06-17T06:04:21.675Z,52.60
2018-06-17T06:06:50.478Z,53.90
2018-06-17T06:09:19.271Z,53.80
2018-06-17T06:11:48.075Z,52.80
2018-06-17T06:14:16.915Z,54.30
2018-06-17T06:16:45.741Z,56.20
2018-06-17T06:19:14.551Z,58.30
2018-06-17T06:21:43.463Z,61.50
2018-06-17T06:24:12.280Z,64.20
2018-06-17T06:26:41.108Z,66.10
2018-06-17T06:29:09.944Z,67.40
2018-06-17T06:31:38.762Z,67.90
2018-06-17T06:34:07.579Z,67.90
2018-06-17T06:36:36.399Z,69.60
2018-06-17T06:39:07.451Z,69.70
2018-06-17T06:41:36.267Z,70.40
2018-06-17T06:44:05.211Z,70.80
2018-06-17T06:46:34.088Z,71.10
2018-06-17T06:49:02.903Z,70.80
2018-06-17T06:51:31.750Z,69.70
2018-06-17T06:54:00.572Z,65.00
2018-06-17T06:56:29.391Z,61.30
2018-06-17T06:58:58.204Z,58.60
2018-06-17T07:01:38.460Z,57.20
2018-06-17T07:04:18.763Z,55.50
2018-06-17T07:06:59.242Z,56.60
2018-06-17T07:09:39.666Z,58.10
2018-06-17T07:12:08.591Z,58.80
2018-06-17T07:14:37.423Z,58.30
2018-06-17T07:17:17.908Z,57.70
2018-06-17T07:19:46.920Z,57.50
2018-06-17T07:22:15.492Z,56.00
2018-06-17T07:24:44.066Z,54.20
2018-06-17T07:27:24.283Z,53.60
2018-06-17T07:29:52.850Z,52.30
2018-06-17T07:32:21.535Z,52.80
2018-06-17T07:34:50.089Z,53.00
2018-06-17T07:37:18.682Z,53.30
2018-06-17T07:40:16.335Z,54.50
2018-06-17T07:42:45.747Z,54.50
2018-06-17T07:45:14.435Z,54.00
2018-06-17T07:47:43.015Z,54.60
2018-06-17T07:50:23.255Z,56.20
2018-06-17T07:53:03.406Z,57.00
2018-06-17T07:55:31.999Z,57.30
2018-06-17T07:58:00.567Z,57.20
2018-06-17T08:00:29.159Z,57.00
2018-06-17T08:02:57.730Z,56.50
2018-06-17T08:05:26.316Z,56.40
2018-06-17T08:07:55.002Z,55.90
2018-06-17T08:10:24.139Z,56.30
2018-06-17T08:12:52.818Z,53.50
2018-06-17T08:15:21.409Z,51.30
2018-06-17T08:17:50.059Z,49.50
2018-06-17T08:20:18.712Z,47.70
2018-06-17T08:22:47.258Z,46.70
2018-06-17T08:25:15.843Z,45.30
2018-06-17T08:27:44.421Z,44.10
2018-06-17T08:30:13.096Z,43.20
2018-06-17T08:32:41.804Z,43.00
2018-06-17T08:35:11.104Z,43.20
2018-06-17T08:37:39.699Z,43.90
2018-06-17T08:40:08.284Z,43.90
2018-06-17T08:42:36.866Z,43.40
2018-06-17T08:45:05.512Z,43.70
2018-06-17T08:47:34.194Z,44.10
2018-06-17T08:50:02.764Z,43.90
2018-06-17T08:52:31.359Z,43.60
2018-06-17T08:55:00.019Z,42.70
2018-06-17T08:59:56.964Z,40.10
2018-06-17T09:02:25.539Z,39.60
2018-06-17T09:04:54.107Z,41.20
2018-06-17T09:07:22.699Z,40.90
2018-06-17T09:09:51.271Z,40.10
2018-06-17T09:12:19.919Z,40.20
2018-06-17T09:14:48.431Z,39.40
2018-06-17T09:17:16.989Z,39.00
2018-06-17T09:19:45.559Z,37.20
2018-06-17T09:22:14.142Z,37.20
2018-06-17T09:24:42.715Z,37.60
2018-06-17T09:27:11.276Z,38.70
2018-06-17T09:29:39.835Z,38.60
2018-06-17T09:32:08.451Z,36.50
2018-06-17T09:34:36.959Z,36.10
2018-06-17T09:37:05.527Z,36.60
2018-06-17T09:39:34.088Z,37.60
2018-06-17T09:42:02.704Z,38.90
2018-06-17T09:44:31.255Z,37.70
2018-06-17T09:46:59.873Z,34.50
2018-06-17T09:49:28.446Z,34.20
2018-06-17T09:51:57.031Z,35.10
2018-06-17T09:54:25.598Z,35.50
2018-06-17T09:56:54.163Z,36.40
2018-06-17T09:59:22.727Z,36.20
2018-06-17T10:01:51.329Z,36.20
2018-06-17T10:04:19.912Z,37.10
2018-06-17T10:06:48.464Z,37.50
2018-06-17T10:09:17.099Z,39.40
2018-06-17T10:11:45.662Z,40.80
2018-06-17T10:14:14.498Z,41.50
2018-06-17T10:16:43.324Z,41.20
2018-06-17T10:19:12.146Z,40.70
2018-06-17T10:21:40.956Z,40.30
2018-06-17T10:24:09.776Z,39.90
2018-06-17T10:26:38.604Z,39.10
2018-06-17T10:29:07.426Z,38.90
2018-06-17T10:31:36.251Z,38.80
2018-06-17T10:34:05.327Z,39.80
2018-06-17T10:36:34.155Z,40.60
2018-06-17T10:39:03.004Z,41.70
2018-06-17T10:41:31.816Z,42.90
2018-06-17T10:44:00.638Z,43.60
2018-06-17T10:46:29.447Z,44.20
2018-06-17T10:48:58.277Z,42.80
2018-06-17T10:51:27.083Z,42.60
2018-06-17T10:53:55.907Z,42.00
2018-06-17T10:56:24.739Z,40.70
2018-06-17T10:58:53.656Z,40.70
2018-06-17T11:01:22.480Z,38.60
2018-06-17T11:03:51.292Z,38.70
2018-06-17T11:06:20.123Z,38.60
2018-06-17T11:08:48.955Z,39.20
2018-06-17T11:11:17.928Z,39.50
2018-06-17T11:13:46.767Z,40.30
2018-06-17T11:21:12.760Z,39.50
2018-06-17T11:23:41.682Z,40.50
2018-06-17T11:26:10.558Z,40.20
2018-06-17T11:28:39.367Z,40.70
2018-06-17T11:31:08.349Z,40.70
2018-06-17T11:33:37.247Z,38.90
2018-06-17T11:36:06.067Z,40.00
2018-06-17T11:38:34.876Z,41.20
2018-06-17T11:41:03.695Z,41.50
2018-06-17T11:43:32.502Z,40.10
2018-06-17T11:46:01.383Z,38.90
2018-06-17T11:48:30.374Z,38.60
2018-06-17T11:50:59.317Z,40.00
2018-06-17T11:53:28.140Z,39.40
2018-06-17T11:55:56.952Z,38.90
2018-06-17T11:58:25.759Z,38.80
2018-06-17T12:00:54.579Z,39.00
2018-06-17T12:03:23.412Z,37.50
2018-06-17T12:05:52.282Z,38.60
2018-06-17T12:08:21.100Z,38.80
2018-06-17T12:10:49.910Z,38.40
2018-06-17T12:13:18.732Z,38.60
2018-06-17T12:15:47.632Z,38.70
2018-06-17T12:18:16.515Z,38.10
2018-06-17T12:20:45.335Z,38.80
2018-06-17T12:23:14.217Z,38.70
2018-06-17T12:25:43.000Z,39.10
2018-06-17T12:28:11.872Z,38.80
2018-06-17T12:30:40.763Z,38.50
2018-06-17T12:33:09.644Z,38.80
2018-06-17T12:35:38.548Z,40.00
2018-06-17T12:38:07.363Z,40.20
2018-06-17T12:40:36.221Z,39.60
2018-06-17T12:43:05.055Z,40.20
2018-06-17T12:45:33.898Z,39.40
2018-06-17T12:48:02.712Z,38.10
2018-06-17T12:50:31.604Z,37.60
2018-06-17T12:53:00.407Z,37.50
2018-06-17T12:55:29.228Z,37.20
2018-06-17T12:57:58.076Z,37.00
2018-06-17T13:00:26.871Z,38.00
2018-06-17T13:02:55.684Z,37.30
2018-06-17T13:05:24.587Z,36.70
2018-06-17T13:07:53.402Z,36.60
2018-06-17T13:10:22.268Z,36.30
2018-06-17T13:12:51.222Z,35.70
2018-06-17T13:15:20.056Z,36.20
2018-06-17T13:17:49.648Z,36.30
2018-06-17T13:20:18.445Z,35.30
2018-06-17T13:22:47.284Z,35.40
2018-06-17T13:25:16.076Z,34.90
2018-06-17T13:27:46.140Z,34.40
2018-06-17T13:30:14.911Z,35.70
2018-06-17T13:32:43.718Z,37.20
2018-06-17T13:35:12.511Z,37.50
2018-06-17T13:37:41.316Z,37.70
2018-06-17T13:40:10.120Z,38.10
2018-06-17T13:42:38.931Z,38.40
2018-06-17T13:45:07.727Z,37.90
2018-06-17T13:47:36.526Z,38.70
2018-06-17T13:50:05.324Z,39.30
2018-06-17T13:52:34.460Z,40.00
2018-06-17T13:55:03.910Z,40.50
2018-06-17T13:57:32.812Z,40.70
2018-06-17T14:00:01.612Z,40.30
2018-06-17T14:02:30.407Z,41.00
2018-06-17T14:04:59.223Z,41.70
2018-06-17T14:07:28.071Z,42.10
2018-06-17T14:09:57.184Z,43.30
2018-06-17T14:12:26.088Z,43.00
2018-06-17T14:14:54.912Z,44.50
2018-06-17T14:17:23.724Z,44.10
2018-06-17T14:19:52.973Z,43.20
2018-06-17T14:22:21.783Z,43.40
2018-06-17T14:24:50.607Z,42.70
2018-06-17T14:27:19.394Z,43.00
2018-06-17T14:29:48.212Z,43.00
2018-06-17T14:32:17.007Z,42.10
2018-06-17T14:34:45.839Z,41.40
2018-06-17T14:37:14.640Z,41.60
2018-06-17T14:39:43.552Z,41.70
2018-06-17T14:42:17.867Z,42.00
2018-06-17T14:44:52.183Z,42.00
2018-06-17T14:48:29.639Z,41.70
2018-06-17T14:51:03.928Z,42.20
2018-06-17T14:53:32.727Z,42.50
2018-06-17T14:56:01.598Z,42.60
2018-06-17T14:58:30.395Z,43.10
2018-06-17T15:00:59.192Z,43.80
2018-06-17T15:03:28.004Z,43.70
2018-06-17T15:05:56.820Z,44.40
2018-06-17T15:08:25.737Z,44.80
2018-06-17T15:10:54.513Z,44.70
2018-06-17T15:13:23.416Z,45.30
2018-06-17T15:15:52.200Z,45.10
2018-06-17T15:18:21.018Z,45.30
2018-06-17T15:20:49.807Z,45.30
2018-06-17T15:23:18.604Z,45.60
2018-06-17T15:25:47.392Z,45.20
2018-06-17T15:28:16.192Z,44.90
2018-06-17T15:30:45.504Z,44.10
2018-06-17T15:33:19.775Z,43.30
2018-06-17T15:38:27.966Z,43.30
2018-06-17T15:41:02.235Z,43.30
2018-06-17T15:43:31.040Z,43.90
2018-06-17T15:45:59.840Z,43.80
2018-06-17T15:48:28.636Z,44.30
2018-06-17T15:50:57.510Z,45.10
2018-06-17T15:53:26.235Z,45.70
2018-06-17T15:55:55.039Z,46.30
2018-06-17T15:58:23.835Z,46.70
2018-06-17T16:00:52.631Z,47.00
2018-06-17T16:03:21.429Z,47.20
2018-06-17T16:05:50.247Z,47.00
2018-06-17T16:08:19.039Z,46.90
2018-06-17T16:10:47.840Z,47.00
2018-06-17T16:13:22.268Z,46.60
2018-06-17T16:15:56.488Z,47.20
2018-06-17T16:18:30.800Z,46.80
2018-06-17T16:21:00.567Z,46.30
2018-06-17T16:23:30.591Z,46.40
2018-06-17T16:25:59.583Z,47.50
2018-06-17T16:28:29.096Z,47.60
2018-06-17T16:30:57.912Z,48.10
2018-06-17T16:33:26.739Z,48.30
2018-06-17T16:35:55.663Z,48.70
2018-06-17T16:38:24.476Z,48.80
2018-06-17T16:40:53.303Z,48.80
2018-06-17T16:43:22.116Z,48.80
2018-06-17T16:45:50.920Z,49.50
2018-06-17T16:48:19.894Z,50.00
2018-06-17T16:50:54.152Z,50.20
2018-06-17T16:53:28.475Z,50.60
2018-06-17T16:56:02.932Z,50.80
2018-06-17T16:58:37.082Z,51.10
2018-06-17T17:01:06.095Z,51.40
2018-06-17T17:03:34.912Z,51.30
2018-06-17T17:06:03.725Z,51.80
2018-06-17T17:08:32.549Z,51.90
2018-06-17T17:11:01.355Z,52.00
2018-06-17T17:13:30.187Z,52.30
2018-06-17T17:15:58.996Z,52.70
2018-06-17T17:18:27.804Z,52.90
2018-06-17T17:20:56.611Z,53.40
2018-06-17T17:23:25.501Z,53.40
2018-06-17T17:25:54.243Z,53.80
2018-06-17T17:28:23.060Z,54.30
2018-06-17T17:30:51.982Z,54.40
2018-06-17T17:33:26.275Z,54.20
2018-06-17T17:36:00.619Z,54.30
2018-06-17T17:38:33.674Z,54.60
2018-06-17T17:41:04.475Z,54.50
2018-06-17T17:43:34.259Z,54.80
2018-06-17T17:46:08.392Z,55.10
2018-06-17T17:48:37.227Z,55.20
2018-06-17T17:51:06.055Z,55.20
2018-06-17T17:53:34.872Z,55.60
2018-06-17T17:56:03.687Z,55.80
2018-06-17T17:58:32.502Z,56.20
2018-06-17T18:01:01.292Z,56.50
2018-06-17T18:05:58.618Z,57.10
2018-06-17T18:08:27.424Z,57.10
2018-06-17T18:10:56.221Z,57.10
2018-06-17T18:13:25.421Z,57.40
2018-06-17T18:15:54.169Z,58.10
2018-06-17T18:18:22.971Z,57.70
2018-06-17T18:20:51.800Z,57.90
2018-06-17T18:25:54.559Z,58.40
2018-06-17T18:28:28.912Z,58.60
2018-06-17T18:31:02.029Z,58.60
2018-06-17T18:33:36.324Z,58.90
2018-06-17T18:36:07.492Z,58.90
2018-06-17T18:38:36.913Z,58.90
2018-06-17T18:41:05.791Z,59.20
2018-06-17T18:43:34.590Z,59.30
2018-06-17T18:46:03.388Z,59.60
2018-06-17T18:48:32.187Z,59.70
2018-06-17T18:51:00.993Z,59.80
2018-06-17T18:53:29.824Z,60.00
2018-06-17T18:55:58.600Z,60.10
2018-06-17T18:58:27.398Z,60.10
2018-06-17T19:00:56.224Z,60.30
2018-06-17T19:03:25.029Z,60.50
2018-06-17T19:05:53.872Z,60.80
2018-06-17T19:08:28.216Z,61.10
2018-06-17T19:11:02.456Z,61.30
2018-06-17T19:13:36.767Z,61.60
2018-06-17T19:16:13.708Z,61.90
2018-06-17T19:18:42.503Z,61.70
2018-06-17T19:21:11.371Z,62.40
2018-06-17T19:23:40.160Z,62.70
2018-06-17T19:26:08.952Z,63.00
2018-06-17T19:28:37.763Z,63.10
2018-06-17T19:31:06.585Z,63.60
2018-06-17T19:33:35.783Z,63.80
2018-06-17T19:36:04.767Z,63.90
2018-06-17T19:38:33.559Z,64.30
2018-06-17T19:43:30.872Z,65.20
2018-06-17T19:45:59.648Z,65.50
2018-06-17T19:48:28.531Z,65.60
2018-06-17T19:51:02.728Z,65.70
2018-06-17T19:53:37.136Z,65.90
2018-06-17T19:56:11.429Z,66.40
2018-06-17T19:59:43.555Z,66.90
2018-06-17T20:02:12.461Z,67.10
2018-06-17T20:04:41.336Z,66.90
2018-06-17T20:07:10.144Z,67.20
2018-06-17T20:09:38.968Z,67.50
2018-06-17T20:12:07.776Z,67.80
2018-06-17T20:14:37.682Z,67.80
2018-06-17T20:17:06.509Z,67.80
2018-06-17T20:19:35.308Z,67.80
2018-06-17T20:22:04.163Z,68.00
2018-06-17T20:24:33.259Z,67.90
2018-06-17T20:27:02.336Z,68.10
2018-06-17T20:29:31.136Z,68.10
2018-06-17T20:32:05.374Z,69.20
2018-06-17T20:34:39.699Z,68.80
2018-06-17T20:37:14.084Z,69.00
2018-06-17T20:42:22.400Z,69.10
2018-06-17T20:44:51.195Z,69.20
2018-06-17T20:47:20.028Z,69.30
2018-06-17T20:49:48.981Z,69.50
2018-06-17T20:52:17.807Z,69.70
2018-06-17T20:54:46.627Z,70.00
2018-06-17T20:57:15.829Z,70.10
2018-06-17T20:59:45.019Z,70.30
2018-06-17T21:02:13.913Z,70.60
2018-06-17T21:04:43.628Z,70.70
2018-06-17T21:07:13.256Z,71.00
2018-06-17T21:09:42.095Z,71.30
2018-06-17T21:12:10.907Z,71.70
2018-06-17T21:14:39.752Z,71.70
2018-06-17T21:17:08.549Z,72.30
2018-06-17T21:19:42.903Z,72.40
2018-06-17T21:22:17.196Z,72.80
2018-06-17T21:24:51.442Z,72.90
2018-06-17T21:27:25.885Z,73.20
2018-06-17T21:29:54.703Z,73.60
2018-06-17T21:32:23.498Z,73.80
2018-06-17T21:34:52.396Z,74.00
2018-06-17T21:37:21.203Z,74.30
2018-06-17T21:39:50.023Z,74.40
2018-06-17T21:44:47.423Z,74.70
2018-06-17T21:47:16.242Z,75.10
2018-06-17T21:49:45.056Z,75.10
2018-06-17T21:52:13.878Z,75.10
2018-06-17T21:54:42.687Z,74.90
2018-06-17T21:57:11.520Z,75.00
2018-06-17T21:59:40.334Z,75.00
2018-06-17T22:02:10.139Z,74.00
2018-06-17T22:04:40.795Z,74.50
2018-06-17T22:07:11.220Z,74.90
2018-06-17T22:10:46.268Z,74.70
2018-06-17T22:13:15.157Z,74.90
2018-06-17T22:15:49.400Z,74.90
2018-06-17T22:18:18.215Z,74.80
2018-06-17T22:20:47.027Z,74.40
2018-06-17T22:23:15.860Z,74.30
2018-06-17T22:25:44.726Z,74.10
2018-06-17T22:28:13.539Z,74.10
2018-06-17T22:30:42.362Z,74.00
2018-06-17T22:33:11.162Z,73.90
2018-06-17T22:35:39.972Z,73.50
2018-06-17T22:38:08.771Z,72.50
2018-06-17T22:40:37.628Z,72.40
2018-06-17T22:43:06.424Z,70.50
2018-06-17T22:45:35.234Z,69.70
2018-06-17T22:48:04.031Z,69.20
2018-06-17T22:50:32.854Z,68.40
2018-06-17T22:55:35.932Z,67.70
2018-06-17T22:58:10.179Z,67.30
2018-06-17T23:00:44.472Z,67.10
2018-06-17T23:03:18.596Z,67.60
2018-06-17T23:05:52.980Z,68.20
2018-06-17T23:08:27.386Z,69.00
2018-06-17T23:10:56.144Z,68.90
2018-06-17T23:13:25.581Z,67.50
2018-06-17T23:15:54.404Z,67.00
2018-06-17T23:18:23.196Z,66.40
2018-06-17T23:20:52.143Z,66.00
2018-06-17T23:23:20.971Z,65.70
2018-06-17T23:25:49.815Z,65.40
2018-06-17T23:28:18.618Z,65.30
2018-06-17T23:30:47.475Z,65.50
2018-06-17T23:33:16.239Z,65.80
2018-06-17T23:35:45.067Z,66.10
2018-06-17T23:38:13.859Z,66.50
2018-06-17T23:40:42.677Z,66.00
2018-06-17T23:43:11.463Z,66.30
2018-06-17T23:45:44.517Z,65.90
2018-06-17T23:48:18.907Z,66.30
2018-06-17T23:50:53.115Z,70.10
2018-06-17T23:53:27.419Z,72.10
2018-06-17T23:56:01.519Z,75.70
2018-06-17T23:58:30.344Z,78.10
